sensor_id;sensor_type;location;lat;lon;timestamp;temperature;humidity
61398;DHT22;47267;48.130;-2.040;2023-04-07T00:00:28;20.00;47.10
61398;DHT22;47267;48.130;-2.040;2023-04-07T00:02:54;20.00;47.10
61398;DHT22;47267;48.130;-2.040;2023-04-07T00:05:21;20.00;47.10
61398;DHT22;47267;48.130;-2.040;2023-04-07T00:07:48;20.00;47.10
61398;DHT22;47267;48.130;-2.040;2023-04-07T00:10:13;20.00;47.10
61398;DHT22;47267;48.130;-2.040;2023-04-07T00:12:39;20.00;47.10
61398;DHT22;47267;48.130;-2.040;2023-04-07T00:15:06;20.00;47.10
61398;DHT22;47267;48.130;-2.040;2023-04-07T00:17:32;20.00;47.00
61398;DHT22;47267;48.130;-2.040;2023-04-07T00:19:57;20.00;47.00
61398;DHT22;47267;48.130;-2.040;2023-04-07T00:22:23;20.00;47.10
61398;DHT22;47267;48.130;-2.040;2023-04-07T00:24:52;19.90;47.00
61398;DHT22;47267;48.130;-2.040;2023-04-07T00:27:17;20.00;47.10
61398;DHT22;47267;48.130;-2.040;2023-04-07T00:29:43;20.00;47.00
61398;DHT22;47267;48.130;-2.040;2023-04-07T00:32:11;20.00;47.00
61398;DHT22;47267;48.130;-2.040;2023-04-07T00:34:36;20.00;47.00
61398;DHT22;47267;48.130;-2.040;2023-04-07T00:37:02;19.90;47.00
61398;DHT22;47267;48.130;-2.040;2023-04-07T00:39:28;19.90;46.90
61398;DHT22;47267;48.130;-2.040;2023-04-07T00:41:56;19.90;47.00
61398;DHT22;47267;48.130;-2.040;2023-04-07T00:44:22;19.90;46.90
61398;DHT22;47267;48.130;-2.040;2023-04-07T00:46:48;19.90;46.90
61398;DHT22;47267;48.130;-2.040;2023-04-07T00:49:15;19.90;47.00
61398;DHT22;47267;48.130;-2.040;2023-04-07T00:51:42;19.90;47.00
61398;DHT22;47267;48.130;-2.040;2023-04-07T00:54:08;19.90;46.90
61398;DHT22;47267;48.130;-2.040;2023-04-07T00:56:34;19.90;46.90
61398;DHT22;47267;48.130;-2.040;2023-04-07T00:59:03;19.90;46.90
61398;DHT22;47267;48.130;-2.040;2023-04-07T01:01:40;19.90;46.90
61398;DHT22;47267;48.130;-2.040;2023-04-07T01:04:26;19.90;46.90
61398;DHT22;47267;48.130;-2.040;2023-04-07T01:07:01;19.80;46.90
61398;DHT22;47267;48.130;-2.040;2023-04-07T01:09:37;19.80;46.90
61398;DHT22;47267;48.130;-2.040;2023-04-07T01:12:25;19.80;46.90
61398;DHT22;47267;48.130;-2.040;2023-04-07T01:15:03;19.80;46.90
61398;DHT22;47267;48.130;-2.040;2023-04-07T01:17:33;19.80;46.90
61398;DHT22;47267;48.130;-2.040;2023-04-07T01:20:01;19.80;46.90
61398;DHT22;47267;48.130;-2.040;2023-04-07T01:22:52;19.80;46.90
61398;DHT22;47267;48.130;-2.040;2023-04-07T01:25:25;19.80;46.90
61398;DHT22;47267;48.130;-2.040;2023-04-07T01:30:19;19.80;46.90
61398;DHT22;47267;48.130;-2.040;2023-04-07T01:32:49;19.70;46.80
61398;DHT22;47267;48.130;-2.040;2023-04-07T01:35:17;19.70;46.80
61398;DHT22;47267;48.130;-2.040;2023-04-07T01:37:44;19.70;46.80
61398;DHT22;47267;48.130;-2.040;2023-04-07T01:40:13;19.70;46.80
61398;DHT22;47267;48.130;-2.040;2023-04-07T01:42:40;19.70;46.80
61398;DHT22;47267;48.130;-2.040;2023-04-07T01:45:07;19.70;46.80
61398;DHT22;47267;48.130;-2.040;2023-04-07T01:47:34;19.70;46.80
61398;DHT22;47267;48.130;-2.040;2023-04-07T01:50:02;19.70;46.80
61398;DHT22;47267;48.130;-2.040;2023-04-07T01:52:35;19.70;46.80
61398;DHT22;47267;48.130;-2.040;2023-04-07T01:55:05;19.70;46.80
61398;DHT22;47267;48.130;-2.040;2023-04-07T01:57:31;19.70;46.80
61398;DHT22;47267;48.130;-2.040;2023-04-07T01:59:57;19.70;46.80
61398;DHT22;47267;48.130;-2.040;2023-04-07T02:02:22;19.70;46.80
61398;DHT22;47267;48.130;-2.040;2023-04-07T02:04:54;19.60;46.70
61398;DHT22;47267;48.130;-2.040;2023-04-07T02:08:04;19.60;46.70
61398;DHT22;47267;48.130;-2.040;2023-04-07T02:10:22;19.60;46.70
61398;DHT22;47267;48.130;-2.040;2023-04-07T02:12:48;19.60;46.70
61398;DHT22;47267;48.130;-2.040;2023-04-07T02:15:15;19.60;46.70
61398;DHT22;47267;48.130;-2.040;2023-04-07T02:17:43;19.60;46.70
61398;DHT22;47267;48.130;-2.040;2023-04-07T02:20:13;19.60;46.70
61398;DHT22;47267;48.130;-2.040;2023-04-07T02:22:41;19.60;46.70
61398;DHT22;47267;48.130;-2.040;2023-04-07T02:25:30;19.60;46.70
61398;DHT22;47267;48.130;-2.040;2023-04-07T02:27:58;19.60;46.70
61398;DHT22;47267;48.130;-2.040;2023-04-07T02:30:26;19.60;46.70
61398;DHT22;47267;48.130;-2.040;2023-04-07T02:32:52;19.60;46.70
61398;DHT22;47267;48.130;-2.040;2023-04-07T02:35:18;19.60;46.60
61398;DHT22;47267;48.130;-2.040;2023-04-07T02:37:45;19.60;46.70
61398;DHT22;47267;48.130;-2.040;2023-04-07T02:40:12;19.50;46.60
61398;DHT22;47267;48.130;-2.040;2023-04-07T02:42:38;19.60;46.60
61398;DHT22;47267;48.130;-2.040;2023-04-07T02:45:05;19.50;46.60
61398;DHT22;47267;48.130;-2.040;2023-04-07T02:47:32;19.50;46.60
61398;DHT22;47267;48.130;-2.040;2023-04-07T02:49:58;19.50;46.60
61398;DHT22;47267;48.130;-2.040;2023-04-07T02:52:24;19.50;46.60
61398;DHT22;47267;48.130;-2.040;2023-04-07T02:54:50;19.50;46.60
61398;DHT22;47267;48.130;-2.040;2023-04-07T02:57:17;19.50;46.60
61398;DHT22;47267;48.130;-2.040;2023-04-07T02:59:42;19.50;46.60
61398;DHT22;47267;48.130;-2.040;2023-04-07T03:02:08;19.50;46.60
61398;DHT22;47267;48.130;-2.040;2023-04-07T03:04:34;19.50;46.60
61398;DHT22;47267;48.130;-2.040;2023-04-07T03:07:00;19.50;46.60
61398;DHT22;47267;48.130;-2.040;2023-04-07T03:09:26;19.50;46.60
61398;DHT22;47267;48.130;-2.040;2023-04-07T03:11:52;19.50;46.60
61398;DHT22;47267;48.130;-2.040;2023-04-07T03:14:18;19.50;46.60
61398;DHT22;47267;48.130;-2.040;2023-04-07T03:16:43;19.40;46.50
61398;DHT22;47267;48.130;-2.040;2023-04-07T03:19:09;19.40;46.60
61398;DHT22;47267;48.130;-2.040;2023-04-07T03:21:36;19.40;46.50
61398;DHT22;47267;48.130;-2.040;2023-04-07T03:24:03;19.40;46.50
61398;DHT22;47267;48.130;-2.040;2023-04-07T03:26:29;19.40;46.60
61398;DHT22;47267;48.130;-2.040;2023-04-07T03:28:55;19.40;46.50
61398;DHT22;47267;48.130;-2.040;2023-04-07T03:31:21;19.40;46.50
61398;DHT22;47267;48.130;-2.040;2023-04-07T03:33:48;19.40;46.50
61398;DHT22;47267;48.130;-2.040;2023-04-07T03:36:14;19.40;46.50
61398;DHT22;47267;48.130;-2.040;2023-04-07T03:38:39;19.40;46.50
61398;DHT22;47267;48.130;-2.040;2023-04-07T03:41:05;19.40;46.50
61398;DHT22;47267;48.130;-2.040;2023-04-07T03:43:31;19.40;46.50
61398;DHT22;47267;48.130;-2.040;2023-04-07T03:45:57;19.40;46.50
61398;DHT22;47267;48.130;-2.040;2023-04-07T03:48:22;19.40;46.50
61398;DHT22;47267;48.130;-2.040;2023-04-07T03:50:48;19.40;46.50
61398;DHT22;47267;48.130;-2.040;2023-04-07T03:53:14;19.40;46.50
61398;DHT22;47267;48.130;-2.040;2023-04-07T03:55:41;19.40;46.50
61398;DHT22;47267;48.130;-2.040;2023-04-07T03:58:07;19.40;46.50
61398;DHT22;47267;48.130;-2.040;2023-04-07T04:00:33;19.30;46.50
61398;DHT22;47267;48.130;-2.040;2023-04-07T04:02:59;19.30;46.40
61398;DHT22;47267;48.130;-2.040;2023-04-07T04:05:25;19.30;46.40
61398;DHT22;47267;48.130;-2.040;2023-04-07T04:07:51;19.30;46.40
61398;DHT22;47267;48.130;-2.040;2023-04-07T04:10:20;19.30;46.40
61398;DHT22;47267;48.130;-2.040;2023-04-07T04:12:47;19.30;46.40
61398;DHT22;47267;48.130;-2.040;2023-04-07T04:15:16;19.30;46.40
61398;DHT22;47267;48.130;-2.040;2023-04-07T04:17:42;19.30;46.40
61398;DHT22;47267;48.130;-2.040;2023-04-07T04:20:08;19.30;46.40
61398;DHT22;47267;48.130;-2.040;2023-04-07T04:22:34;19.30;46.40
61398;DHT22;47267;48.130;-2.040;2023-04-07T04:25:00;19.30;46.40
61398;DHT22;47267;48.130;-2.040;2023-04-07T04:27:26;19.20;46.30
61398;DHT22;47267;48.130;-2.040;2023-04-07T04:29:52;19.30;46.40
61398;DHT22;47267;48.130;-2.040;2023-04-07T04:32:18;19.20;46.40
61398;DHT22;47267;48.130;-2.040;2023-04-07T04:34:44;19.20;46.30
61398;DHT22;47267;48.130;-2.040;2023-04-07T04:37:10;19.20;46.30
61398;DHT22;47267;48.130;-2.040;2023-04-07T04:39:36;19.20;46.30
61398;DHT22;47267;48.130;-2.040;2023-04-07T04:42:02;19.20;46.40
61398;DHT22;47267;48.130;-2.040;2023-04-07T04:44:28;19.20;46.30
61398;DHT22;47267;48.130;-2.040;2023-04-07T04:46:55;19.20;46.30
61398;DHT22;47267;48.130;-2.040;2023-04-07T04:49:21;19.20;46.30
61398;DHT22;47267;48.130;-2.040;2023-04-07T04:51:46;19.20;46.30
61398;DHT22;47267;48.130;-2.040;2023-04-07T04:54:12;19.20;46.30
61398;DHT22;47267;48.130;-2.040;2023-04-07T04:56:38;19.20;46.30
61398;DHT22;47267;48.130;-2.040;2023-04-07T04:59:04;19.20;46.30
61398;DHT22;47267;48.130;-2.040;2023-04-07T05:01:30;19.20;46.30
61398;DHT22;47267;48.130;-2.040;2023-04-07T05:03:56;19.20;46.30
61398;DHT22;47267;48.130;-2.040;2023-04-07T05:06:21;19.20;46.30
61398;DHT22;47267;48.130;-2.040;2023-04-07T05:08:47;19.20;46.30
61398;DHT22;47267;48.130;-2.040;2023-04-07T05:11:13;19.10;46.20
61398;DHT22;47267;48.130;-2.040;2023-04-07T05:13:39;19.10;46.20
61398;DHT22;47267;48.130;-2.040;2023-04-07T05:16:05;19.10;46.10
61398;DHT22;47267;48.130;-2.040;2023-04-07T05:18:31;19.10;46.10
61398;DHT22;47267;48.130;-2.040;2023-04-07T05:20:56;19.10;46.20
61398;DHT22;47267;48.130;-2.040;2023-04-07T05:23:22;19.10;46.20
61398;DHT22;47267;48.130;-2.040;2023-04-07T05:25:48;19.10;46.20
61398;DHT22;47267;48.130;-2.040;2023-04-07T05:28:14;19.10;46.20
61398;DHT22;47267;48.130;-2.040;2023-04-07T05:30:42;19.10;46.20
61398;DHT22;47267;48.130;-2.040;2023-04-07T05:33:08;19.10;46.20
61398;DHT22;47267;48.130;-2.040;2023-04-07T05:35:34;19.10;46.30
61398;DHT22;47267;48.130;-2.040;2023-04-07T05:38:00;19.10;46.30
61398;DHT22;47267;48.130;-2.040;2023-04-07T05:40:26;19.10;46.30
61398;DHT22;47267;48.130;-2.040;2023-04-07T05:42:51;19.10;46.30
61398;DHT22;47267;48.130;-2.040;2023-04-07T05:45:17;19.10;46.30
61398;DHT22;47267;48.130;-2.040;2023-04-07T05:47:43;19.10;46.30
61398;DHT22;47267;48.130;-2.040;2023-04-07T05:50:09;19.10;46.40
61398;DHT22;47267;48.130;-2.040;2023-04-07T05:52:36;19.10;46.40
61398;DHT22;47267;48.130;-2.040;2023-04-07T05:55:02;19.10;46.40
61398;DHT22;47267;48.130;-2.040;2023-04-07T05:57:28;19.10;46.50
61398;DHT22;47267;48.130;-2.040;2023-04-07T05:59:53;19.00;46.40
61398;DHT22;47267;48.130;-2.040;2023-04-07T06:02:19;19.10;46.50
61398;DHT22;47267;48.130;-2.040;2023-04-07T06:04:45;19.00;46.50
61398;DHT22;47267;48.130;-2.040;2023-04-07T06:07:14;19.10;46.60
61398;DHT22;47267;48.130;-2.040;2023-04-07T06:09:39;19.10;46.60
61398;DHT22;47267;48.130;-2.040;2023-04-07T06:12:07;19.00;46.50
61398;DHT22;47267;48.130;-2.040;2023-04-07T06:14:33;19.00;46.60
61398;DHT22;47267;48.130;-2.040;2023-04-07T06:16:59;19.00;46.60
61398;DHT22;47267;48.130;-2.040;2023-04-07T06:19:25;19.00;46.60
61398;DHT22;47267;48.130;-2.040;2023-04-07T06:21:52;19.00;46.60
61398;DHT22;47267;48.130;-2.040;2023-04-07T06:24:18;19.00;46.60
61398;DHT22;47267;48.130;-2.040;2023-04-07T06:26:47;19.00;46.70
61398;DHT22;47267;48.130;-2.040;2023-04-07T06:29:13;19.00;46.70
61398;DHT22;47267;48.130;-2.040;2023-04-07T06:31:39;19.00;46.70
61398;DHT22;47267;48.130;-2.040;2023-04-07T06:34:04;19.00;46.70
61398;DHT22;47267;48.130;-2.040;2023-04-07T06:36:30;19.00;46.70
61398;DHT22;47267;48.130;-2.040;2023-04-07T06:38:57;19.00;46.60
61398;DHT22;47267;48.130;-2.040;2023-04-07T06:41:23;19.00;46.80
61398;DHT22;47267;48.130;-2.040;2023-04-07T06:43:49;19.00;46.70
61398;DHT22;47267;48.130;-2.040;2023-04-07T06:46:18;19.00;46.60
61398;DHT22;47267;48.130;-2.040;2023-04-07T06:48:44;19.00;46.70
61398;DHT22;47267;48.130;-2.040;2023-04-07T06:51:09;19.00;46.70
61398;DHT22;47267;48.130;-2.040;2023-04-07T06:53:36;19.00;46.70
61398;DHT22;47267;48.130;-2.040;2023-04-07T06:56:06;19.00;46.80
61398;DHT22;47267;48.130;-2.040;2023-04-07T06:58:32;19.00;47.40
61398;DHT22;47267;48.130;-2.040;2023-04-07T07:00:59;19.00;46.80
61398;DHT22;47267;48.130;-2.040;2023-04-07T07:03:25;19.00;46.80
61398;DHT22;47267;48.130;-2.040;2023-04-07T07:05:53;19.00;47.10
61398;DHT22;47267;48.130;-2.040;2023-04-07T07:08:21;19.00;46.90
61398;DHT22;47267;48.130;-2.040;2023-04-07T07:10:47;19.00;46.90
61398;DHT22;47267;48.130;-2.040;2023-04-07T07:13:12;19.00;46.90
61398;DHT22;47267;48.130;-2.040;2023-04-07T07:15:38;19.00;47.80
61398;DHT22;47267;48.130;-2.040;2023-04-07T07:18:04;19.00;47.20
61398;DHT22;47267;48.130;-2.040;2023-04-07T07:20:30;19.00;46.80
61398;DHT22;47267;48.130;-2.040;2023-04-07T07:22:55;19.00;46.30
61398;DHT22;47267;48.130;-2.040;2023-04-07T07:25:22;19.00;45.40
61398;DHT22;47267;48.130;-2.040;2023-04-07T07:27:47;18.90;45.70
61398;DHT22;47267;48.130;-2.040;2023-04-07T07:30:19;18.90;46.00
61398;DHT22;47267;48.130;-2.040;2023-04-07T07:32:45;18.90;45.90
61398;DHT22;47267;48.130;-2.040;2023-04-07T07:35:11;18.80;46.00
61398;DHT22;47267;48.130;-2.040;2023-04-07T07:37:36;18.80;46.00
61398;DHT22;47267;48.130;-2.040;2023-04-07T07:40:02;18.70;46.00
61398;DHT22;47267;48.130;-2.040;2023-04-07T07:42:29;18.70;46.10
61398;DHT22;47267;48.130;-2.040;2023-04-07T07:44:55;18.60;46.00
61398;DHT22;47267;48.130;-2.040;2023-04-07T07:47:21;18.60;46.00
61398;DHT22;47267;48.130;-2.040;2023-04-07T07:49:48;18.60;46.00
61398;DHT22;47267;48.130;-2.040;2023-04-07T07:52:13;18.50;46.10
61398;DHT22;47267;48.130;-2.040;2023-04-07T07:54:40;18.50;46.00
61398;DHT22;47267;48.130;-2.040;2023-04-07T07:57:06;18.50;46.10
61398;DHT22;47267;48.130;-2.040;2023-04-07T07:59:32;18.50;46.10
61398;DHT22;47267;48.130;-2.040;2023-04-07T08:01:58;18.50;46.10
61398;DHT22;47267;48.130;-2.040;2023-04-07T08:04:23;18.40;46.10
61398;DHT22;47267;48.130;-2.040;2023-04-07T08:06:49;18.40;46.20
61398;DHT22;47267;48.130;-2.040;2023-04-07T08:09:17;18.40;46.10
61398;DHT22;47267;48.130;-2.040;2023-04-07T08:11:43;18.40;46.20
61398;DHT22;47267;48.130;-2.040;2023-04-07T08:14:09;18.40;46.20
61398;DHT22;47267;48.130;-2.040;2023-04-07T08:16:34;18.30;46.20
61398;DHT22;47267;48.130;-2.040;2023-04-07T08:19:00;18.40;46.30
61398;DHT22;47267;48.130;-2.040;2023-04-07T08:21:26;18.30;46.30
61398;DHT22;47267;48.130;-2.040;2023-04-07T08:23:53;18.30;46.30
61398;DHT22;47267;48.130;-2.040;2023-04-07T08:26:19;18.30;46.30
61398;DHT22;47267;48.130;-2.040;2023-04-07T08:28:46;18.30;46.40
61398;DHT22;47267;48.130;-2.040;2023-04-07T08:31:12;18.30;46.40
61398;DHT22;47267;48.130;-2.040;2023-04-07T08:33:37;18.30;46.40
61398;DHT22;47267;48.130;-2.040;2023-04-07T08:36:03;18.30;46.40
61398;DHT22;47267;48.130;-2.040;2023-04-07T08:38:29;18.30;46.50
61398;DHT22;47267;48.130;-2.040;2023-04-07T08:41:03;18.30;46.50
61398;DHT22;47267;48.130;-2.040;2023-04-07T08:43:29;18.30;46.00
61398;DHT22;47267;48.130;-2.040;2023-04-07T08:45:56;18.30;46.60
61398;DHT22;47267;48.130;-2.040;2023-04-07T08:48:24;18.30;46.60
61398;DHT22;47267;48.130;-2.040;2023-04-07T08:50:51;18.40;46.60
61398;DHT22;47267;48.130;-2.040;2023-04-07T08:53:23;18.40;46.70
61398;DHT22;47267;48.130;-2.040;2023-04-07T08:55:54;18.40;46.60
61398;DHT22;47267;48.130;-2.040;2023-04-07T08:58:20;18.30;46.60
61398;DHT22;47267;48.130;-2.040;2023-04-07T09:00:47;18.40;46.70
61398;DHT22;47267;48.130;-2.040;2023-04-07T09:03:15;18.40;46.70
61398;DHT22;47267;48.130;-2.040;2023-04-07T09:05:43;18.40;46.70
61398;DHT22;47267;48.130;-2.040;2023-04-07T09:08:10;18.40;46.70
61398;DHT22;47267;48.130;-2.040;2023-04-07T09:10:36;18.40;46.70
61398;DHT22;47267;48.130;-2.040;2023-04-07T09:13:02;18.50;46.80
61398;DHT22;47267;48.130;-2.040;2023-04-07T09:15:31;18.50;47.50
61398;DHT22;47267;48.130;-2.040;2023-04-07T09:17:57;18.50;46.90
61398;DHT22;47267;48.130;-2.040;2023-04-07T09:20:24;18.50;46.90
61398;DHT22;47267;48.130;-2.040;2023-04-07T09:22:50;18.50;46.90
61398;DHT22;47267;48.130;-2.040;2023-04-07T09:25:18;18.50;46.90
61398;DHT22;47267;48.130;-2.040;2023-04-07T09:27:58;18.50;46.90
61398;DHT22;47267;48.130;-2.040;2023-04-07T09:30:25;18.50;46.90
61398;DHT22;47267;48.130;-2.040;2023-04-07T09:32:51;18.50;46.90
61398;DHT22;47267;48.130;-2.040;2023-04-07T09:35:17;18.60;47.00
61398;DHT22;47267;48.130;-2.040;2023-04-07T09:37:43;18.60;47.00
61398;DHT22;47267;48.130;-2.040;2023-04-07T09:40:09;18.60;47.00
61398;DHT22;47267;48.130;-2.040;2023-04-07T09:42:44;18.60;47.00
61398;DHT22;47267;48.130;-2.040;2023-04-07T09:45:10;18.60;47.00
61398;DHT22;47267;48.130;-2.040;2023-04-07T09:47:36;18.60;47.00
61398;DHT22;47267;48.130;-2.040;2023-04-07T09:50:02;18.70;47.10
61398;DHT22;47267;48.130;-2.040;2023-04-07T09:52:50;18.70;47.10
61398;DHT22;47267;48.130;-2.040;2023-04-07T09:55:22;18.70;47.10
61398;DHT22;47267;48.130;-2.040;2023-04-07T09:57:49;18.70;47.10
61398;DHT22;47267;48.130;-2.040;2023-04-07T10:00:15;18.70;47.10
61398;DHT22;47267;48.130;-2.040;2023-04-07T10:02:42;18.80;47.20
61398;DHT22;47267;48.130;-2.040;2023-04-07T10:05:09;18.80;47.80
61398;DHT22;47267;48.130;-2.040;2023-04-07T10:07:35;18.80;47.20
61398;DHT22;47267;48.130;-2.040;2023-04-07T10:10:02;18.80;47.20
61398;DHT22;47267;48.130;-2.040;2023-04-07T10:12:30;18.80;47.10
61398;DHT22;47267;48.130;-2.040;2023-04-07T10:14:57;18.80;47.20
61398;DHT22;47267;48.130;-2.040;2023-04-07T10:17:25;18.90;47.20
61398;DHT22;47267;48.130;-2.040;2023-04-07T10:19:53;18.90;47.20
61398;DHT22;47267;48.130;-2.040;2023-04-07T10:22:21;18.90;47.20
61398;DHT22;47267;48.130;-2.040;2023-04-07T10:25:01;18.90;47.20
61398;DHT22;47267;48.130;-2.040;2023-04-07T10:30:30;19.00;47.20
61398;DHT22;47267;48.130;-2.040;2023-04-07T10:32:56;19.00;47.20
61398;DHT22;47267;48.130;-2.040;2023-04-07T10:35:23;19.00;47.30
61398;DHT22;47267;48.130;-2.040;2023-04-07T10:40:33;19.10;47.30
61398;DHT22;47267;48.130;-2.040;2023-04-07T10:43:00;19.10;47.30
61398;DHT22;47267;48.130;-2.040;2023-04-07T10:48:11;19.10;47.30
61398;DHT22;47267;48.130;-2.040;2023-04-07T10:50:37;19.10;47.30
61398;DHT22;47267;48.130;-2.040;2023-04-07T10:53:11;19.20;47.40
61398;DHT22;47267;48.130;-2.040;2023-04-07T10:58:31;19.20;47.40
61398;DHT22;47267;48.130;-2.040;2023-04-07T11:03:34;19.20;47.30
61398;DHT22;47267;48.130;-2.040;2023-04-07T11:06:08;19.20;47.30
61398;DHT22;47267;48.130;-2.040;2023-04-07T11:08:38;19.30;47.40
61398;DHT22;47267;48.130;-2.040;2023-04-07T11:11:06;19.30;47.40
61398;DHT22;47267;48.130;-2.040;2023-04-07T11:13:42;19.30;47.40
61398;DHT22;47267;48.130;-2.040;2023-04-07T11:16:08;19.30;47.40
61398;DHT22;47267;48.130;-2.040;2023-04-07T11:18:34;19.30;47.40
61398;DHT22;47267;48.130;-2.040;2023-04-07T11:21:01;19.30;47.40
61398;DHT22;47267;48.130;-2.040;2023-04-07T11:23:27;19.40;47.40
61398;DHT22;47267;48.130;-2.040;2023-04-07T11:26:01;19.40;47.40
61398;DHT22;47267;48.130;-2.040;2023-04-07T11:28:27;19.40;47.40
61398;DHT22;47267;48.130;-2.040;2023-04-07T11:30:54;19.40;47.40
61398;DHT22;47267;48.130;-2.040;2023-04-07T11:33:22;19.40;47.40
61398;DHT22;47267;48.130;-2.040;2023-04-07T11:35:57;19.50;47.40
61398;DHT22;47267;48.130;-2.040;2023-04-07T11:38:33;19.50;47.40
61398;DHT22;47267;48.130;-2.040;2023-04-07T11:41:12;19.50;47.40
61398;DHT22;47267;48.130;-2.040;2023-04-07T11:43:38;19.50;47.40
61398;DHT22;47267;48.130;-2.040;2023-04-07T11:46:16;19.50;47.40
61398;DHT22;47267;48.130;-2.040;2023-04-07T11:48:44;19.50;47.40
61398;DHT22;47267;48.130;-2.040;2023-04-07T11:51:21;19.50;47.40
61398;DHT22;47267;48.130;-2.040;2023-04-07T11:53:54;19.60;47.40
61398;DHT22;47267;48.130;-2.040;2023-04-07T11:56:20;19.60;47.40
61398;DHT22;47267;48.130;-2.040;2023-04-07T11:58:53;19.60;47.40
61398;DHT22;47267;48.130;-2.040;2023-04-07T12:01:20;19.60;47.40
61398;DHT22;47267;48.130;-2.040;2023-04-07T12:03:59;19.60;47.50
61398;DHT22;47267;48.130;-2.040;2023-04-07T12:06:35;19.60;47.40
61398;DHT22;47267;48.130;-2.040;2023-04-07T12:09:23;19.60;47.40
61398;DHT22;47267;48.130;-2.040;2023-04-07T12:11:50;19.60;47.40
61398;DHT22;47267;48.130;-2.040;2023-04-07T12:14:16;19.70;47.50
61398;DHT22;47267;48.130;-2.040;2023-04-07T12:16:42;19.70;47.40
61398;DHT22;47267;48.130;-2.040;2023-04-07T12:19:08;19.70;47.50
61398;DHT22;47267;48.130;-2.040;2023-04-07T12:21:33;19.70;47.40
61398;DHT22;47267;48.130;-2.040;2023-04-07T12:23:59;19.70;47.40
61398;DHT22;47267;48.130;-2.040;2023-04-07T12:26:25;19.70;47.50
61398;DHT22;47267;48.130;-2.040;2023-04-07T12:28:51;19.70;47.40
61398;DHT22;47267;48.130;-2.040;2023-04-07T12:31:17;19.80;47.50
61398;DHT22;47267;48.130;-2.040;2023-04-07T12:33:42;19.80;47.50
61398;DHT22;47267;48.130;-2.040;2023-04-07T12:36:08;19.80;47.50
61398;DHT22;47267;48.130;-2.040;2023-04-07T12:38:34;19.80;47.50
61398;DHT22;47267;48.130;-2.040;2023-04-07T12:40:59;19.80;47.50
61398;DHT22;47267;48.130;-2.040;2023-04-07T12:43:29;19.80;47.50
61398;DHT22;47267;48.130;-2.040;2023-04-07T12:45:55;19.80;47.50
61398;DHT22;47267;48.130;-2.040;2023-04-07T12:48:21;19.80;47.40
61398;DHT22;47267;48.130;-2.040;2023-04-07T12:50:48;19.80;47.40
61398;DHT22;47267;48.130;-2.040;2023-04-07T12:53:14;19.90;47.50
61398;DHT22;47267;48.130;-2.040;2023-04-07T12:55:39;19.90;47.50
61398;DHT22;47267;48.130;-2.040;2023-04-07T12:58:06;19.90;47.50
61398;DHT22;47267;48.130;-2.040;2023-04-07T13:00:33;19.90;47.50
61398;DHT22;47267;48.130;-2.040;2023-04-07T13:03:00;19.90;47.50
61398;DHT22;47267;48.130;-2.040;2023-04-07T13:05:25;19.90;47.50
61398;DHT22;47267;48.130;-2.040;2023-04-07T13:07:51;19.90;47.50
61398;DHT22;47267;48.130;-2.040;2023-04-07T13:10:17;19.90;47.50
61398;DHT22;47267;48.130;-2.040;2023-04-07T13:12:43;19.90;47.50
61398;DHT22;47267;48.130;-2.040;2023-04-07T13:15:08;19.90;47.50
61398;DHT22;47267;48.130;-2.040;2023-04-07T13:17:34;19.90;47.50
61398;DHT22;47267;48.130;-2.040;2023-04-07T13:20:04;19.90;47.50
61398;DHT22;47267;48.130;-2.040;2023-04-07T13:22:30;19.90;47.50
61398;DHT22;47267;48.130;-2.040;2023-04-07T13:24:55;19.90;47.40
61398;DHT22;47267;48.130;-2.040;2023-04-07T13:27:21;19.90;47.40
61398;DHT22;47267;48.130;-2.040;2023-04-07T13:29:47;20.00;47.50
61398;DHT22;47267;48.130;-2.040;2023-04-07T13:32:13;20.00;47.50
61398;DHT22;47267;48.130;-2.040;2023-04-07T13:34:40;20.00;47.50
61398;DHT22;47267;48.130;-2.040;2023-04-07T13:37:06;20.00;47.50
61398;DHT22;47267;48.130;-2.040;2023-04-07T13:39:31;20.00;47.50
61398;DHT22;47267;48.130;-2.040;2023-04-07T13:41:57;20.00;47.50
61398;DHT22;47267;48.130;-2.040;2023-04-07T13:44:27;20.00;47.50
61398;DHT22;47267;48.130;-2.040;2023-04-07T13:46:55;20.00;47.50
61398;DHT22;47267;48.130;-2.040;2023-04-07T13:49:22;20.00;47.50
61398;DHT22;47267;48.130;-2.040;2023-04-07T13:51:48;20.00;47.50
61398;DHT22;47267;48.130;-2.040;2023-04-07T13:54:15;20.00;47.50
61398;DHT22;47267;48.130;-2.040;2023-04-07T13:56:41;20.00;47.50
61398;DHT22;47267;48.130;-2.040;2023-04-07T13:59:07;20.10;47.60
61398;DHT22;47267;48.130;-2.040;2023-04-07T14:01:33;20.00;47.50
61398;DHT22;47267;48.130;-2.040;2023-04-07T14:04:02;20.00;47.50
61398;DHT22;47267;48.130;-2.040;2023-04-07T14:06:28;20.10;47.60
61398;DHT22;47267;48.130;-2.040;2023-04-07T14:08:54;20.10;47.50
61398;DHT22;47267;48.130;-2.040;2023-04-07T14:11:20;20.10;47.60
61398;DHT22;47267;48.130;-2.040;2023-04-07T14:13:49;20.10;47.50
61398;DHT22;47267;48.130;-2.040;2023-04-07T14:16:16;20.10;47.50
61398;DHT22;47267;48.130;-2.040;2023-04-07T14:18:42;20.10;47.50
61398;DHT22;47267;48.130;-2.040;2023-04-07T14:21:08;20.10;47.50
61398;DHT22;47267;48.130;-2.040;2023-04-07T14:23:35;20.10;47.50
61398;DHT22;47267;48.130;-2.040;2023-04-07T14:26:01;20.10;47.60
61398;DHT22;47267;48.130;-2.040;2023-04-07T14:28:27;20.20;47.60
61398;DHT22;47267;48.130;-2.040;2023-04-07T14:30:56;20.20;47.60
61398;DHT22;47267;48.130;-2.040;2023-04-07T14:33:21;20.20;47.60
61398;DHT22;47267;48.130;-2.040;2023-04-07T14:35:47;20.20;47.60
61398;DHT22;47267;48.130;-2.040;2023-04-07T14:38:13;20.20;47.60
61398;DHT22;47267;48.130;-2.040;2023-04-07T14:40:39;20.20;47.60
61398;DHT22;47267;48.130;-2.040;2023-04-07T14:43:05;20.20;47.60
61398;DHT22;47267;48.130;-2.040;2023-04-07T14:45:32;20.20;47.60
61398;DHT22;47267;48.130;-2.040;2023-04-07T14:47:58;20.30;47.60
61398;DHT22;47267;48.130;-2.040;2023-04-07T14:50:23;20.30;47.70
61398;DHT22;47267;48.130;-2.040;2023-04-07T14:52:49;20.30;47.60
61398;DHT22;47267;48.130;-2.040;2023-04-07T14:55:15;20.30;47.60
61398;DHT22;47267;48.130;-2.040;2023-04-07T14:57:41;20.30;47.60
61398;DHT22;47267;48.130;-2.040;2023-04-07T15:00:07;20.30;47.60
61398;DHT22;47267;48.130;-2.040;2023-04-07T15:02:34;20.30;47.60
61398;DHT22;47267;48.130;-2.040;2023-04-07T15:05:00;20.30;47.60
61398;DHT22;47267;48.130;-2.040;2023-04-07T15:07:25;20.40;48.20
61398;DHT22;47267;48.130;-2.040;2023-04-07T15:09:51;20.40;47.60
61398;DHT22;47267;48.130;-2.040;2023-04-07T15:12:17;20.40;47.60
61398;DHT22;47267;48.130;-2.040;2023-04-07T15:14:45;20.40;47.60
61398;DHT22;47267;48.130;-2.040;2023-04-07T15:17:11;20.40;47.60
61398;DHT22;47267;48.130;-2.040;2023-04-07T15:19:37;20.50;47.70
61398;DHT22;47267;48.130;-2.040;2023-04-07T15:22:03;20.50;47.60
61398;DHT22;47267;48.130;-2.040;2023-04-07T15:24:29;20.50;47.60
61398;DHT22;47267;48.130;-2.040;2023-04-07T15:26:54;20.50;47.60
61398;DHT22;47267;48.130;-2.040;2023-04-07T15:29:20;20.50;47.60
61398;DHT22;47267;48.130;-2.040;2023-04-07T15:31:46;20.60;47.70